createdAt,value
2022-11-15T00:01:26.817Z,22.60
2022-11-15T00:03:55.574Z,24.45
2022-11-15T00:06:22.188Z,22.83
2022-11-15T00:08:51.068Z,24.05
2022-11-15T00:11:18.636Z,21.58
2022-11-15T00:13:46.677Z,21.90
2022-11-15T00:16:13.566Z,22.77
2022-11-15T00:18:47.727Z,22.67
2022-11-15T00:21:18.435Z,24.52
2022-11-15T00:23:47.965Z,25.55
2022-11-15T00:26:16.379Z,19.58
2022-11-15T00:28:43.330Z,25.17
2022-11-15T00:31:13.560Z,25.00
2022-11-15T00:33:40.083Z,24.90
2022-11-15T00:36:12.597Z,23.48
2022-11-15T00:38:40.290Z,24.58
2022-11-15T00:41:09.841Z,24.15
2022-11-15T00:43:38.572Z,21.33
2022-11-15T00:46:05.279Z,24.08
2022-11-15T00:48:33.058Z,23.52
2022-11-15T00:51:20.100Z,23.15
2022-11-15T00:53:46.685Z,21.30
2022-11-15T00:56:13.215Z,25.77
2022-11-15T00:58:41.059Z,24.48
2022-11-15T01:01:12.865Z,23.40
2022-11-15T01:03:41.532Z,22.73
2022-11-15T01:06:10.376Z,22.45
2022-11-15T01:08:37.425Z,22.57
2022-11-15T01:11:06.934Z,22.98
2022-11-15T01:13:37.580Z,23.13
2022-11-15T01:16:14.654Z,23.02
2022-11-15T01:18:42.371Z,23.17
2022-11-15T01:21:14.501Z,22.80
2022-11-15T01:23:41.275Z,16.75
2022-11-15T01:26:13.706Z,11.52
2022-11-15T01:28:42.869Z,22.40
2022-11-15T01:31:17.996Z,15.50
2022-11-15T01:33:46.446Z,19.97
2022-11-15T01:36:15.851Z,23.00
2022-11-15T01:38:44.957Z,23.85
2022-11-15T01:41:19.714Z,24.70
2022-11-15T01:43:50.716Z,20.40
2022-11-15T01:46:35.125Z,22.40
2022-11-15T01:49:15.863Z,22.20
2022-11-15T01:51:44.120Z,25.20
2022-11-15T01:54:15.496Z,23.67
2022-11-15T01:56:47.669Z,25.02
2022-11-15T01:59:41.459Z,20.77
2022-11-15T02:02:08.217Z,26.98
2022-11-15T02:04:47.474Z,24.55
2022-11-15T02:08:01.785Z,25.73
2022-11-15T02:10:29.698Z,24.50
2022-11-15T02:12:58.376Z,22.77
2022-11-15T02:15:29.689Z,24.15
2022-11-15T02:18:47.802Z,23.70
2022-11-15T02:21:55.591Z,22.75
2022-11-15T02:24:52.840Z,22.55
2022-11-15T02:27:42.009Z,22.70
2022-11-15T02:30:34.911Z,23.30
2022-11-15T02:33:24.326Z,20.80
2022-11-15T02:36:01.664Z,16.60
2022-11-15T02:39:00.907Z,22.83
2022-11-15T02:41:36.845Z,25.30
2022-11-15T02:44:19.891Z,22.63
2022-11-15T02:47:16.383Z,23.05
2022-11-15T02:49:55.902Z,23.73
2022-11-15T02:52:24.066Z,18.38
2022-11-15T02:54:58.969Z,24.00
2022-11-15T02:58:03.035Z,18.38
2022-11-15T03:00:41.022Z,24.42
2022-11-15T03:03:39.378Z,22.55
2022-11-15T03:06:31.209Z,21.13
2022-11-15T03:09:27.304Z,20.17
2022-11-15T03:12:17.380Z,23.60
2022-11-15T03:15:03.206Z,23.10
2022-11-15T03:17:33.852Z,19.23
2022-11-15T03:20:07.323Z,24.00
2022-11-15T03:22:44.886Z,21.83
2022-11-15T03:25:15.271Z,22.90
2022-11-15T03:27:44.560Z,22.85
2022-11-15T03:30:14.157Z,21.08
2022-11-15T03:33:00.968Z,24.27
2022-11-15T03:35:36.959Z,25.43
2022-11-15T03:38:18.960Z,25.98
2022-11-15T03:41:11.015Z,25.52
2022-11-15T03:43:51.207Z,23.80
2022-11-15T03:46:49.683Z,23.85
2022-11-15T03:49:37.087Z,24.30
2022-11-15T03:52:05.722Z,22.70
2022-11-15T03:54:34.052Z,21.80
2022-11-15T03:57:00.723Z,23.90
2022-11-15T03:59:27.586Z,22.90
2022-11-15T04:01:55.003Z,23.60
2022-11-15T04:04:28.981Z,23.70
2022-11-15T04:07:00.516Z,22.55
2022-11-15T04:09:28.644Z,24.02
2022-11-15T04:11:58.415Z,20.50
2022-11-15T04:14:25.011Z,21.93
2022-11-15T04:16:52.850Z,19.40
2022-11-15T04:19:37.989Z,20.20
2022-11-15T04:22:22.875Z,12.95
2022-11-15T04:24:49.441Z,21.95
2022-11-15T04:27:23.175Z,22.57
2022-11-15T04:29:50.858Z,23.25
2022-11-15T04:32:17.412Z,24.45
2022-11-15T04:34:45.463Z,21.15
2022-11-15T04:37:15.041Z,20.52
2022-11-15T04:39:42.301Z,20.97
2022-11-15T04:42:09.494Z,20.42
2022-11-15T04:44:36.205Z,21.38
2022-11-15T04:47:03.440Z,19.67
2022-11-15T04:49:31.152Z,19.55
2022-11-15T04:51:57.696Z,20.53
2022-11-15T04:54:24.435Z,21.00
2022-11-15T04:56:50.960Z,20.13
2022-11-15T04:59:17.541Z,22.00
2022-11-15T05:01:45.288Z,22.73
2022-11-15T05:04:30.761Z,21.93
2022-11-15T05:06:57.351Z,18.58
2022-11-15T05:09:23.975Z,20.05
2022-11-15T05:11:50.535Z,20.70
2022-11-15T05:14:19.697Z,21.52
2022-11-15T05:16:47.817Z,16.97
2022-11-15T05:19:15.663Z,20.25
2022-11-15T05:21:42.718Z,21.73
2022-11-15T05:24:16.039Z,20.45
2022-11-15T05:26:42.612Z,18.65
2022-11-15T05:29:11.062Z,18.97
2022-11-15T05:31:42.305Z,20.90
2022-11-15T05:34:08.865Z,18.42
2022-11-15T05:36:40.306Z,18.75
2022-11-15T05:39:09.192Z,18.38
2022-11-15T05:41:48.328Z,17.53
2022-11-15T05:44:17.090Z,17.55
2022-11-15T05:46:44.254Z,17.00
2022-11-15T05:49:16.256Z,17.65
2022-11-15T05:51:44.726Z,16.27
2022-11-15T05:54:12.721Z,17.00
2022-11-15T05:56:39.532Z,16.48
2022-11-15T05:59:07.213Z,16.85
2022-11-15T06:01:33.795Z,17.67
2022-11-15T06:04:00.480Z,17.10
2022-11-15T06:06:29.423Z,16.90
2022-11-15T06:08:55.996Z,16.63
2022-11-15T06:11:24.854Z,17.10
2022-11-15T06:13:53.899Z,17.85
2022-11-15T06:19:00.839Z,17.03
2022-11-15T06:21:31.301Z,17.15
2022-11-15T06:23:59.203Z,17.23
2022-11-15T06:26:28.083Z,16.77
2022-11-15T06:28:56.004Z,17.58
2022-11-15T06:31:29.948Z,17.67
2022-11-15T06:33:56.539Z,17.25
2022-11-15T06:36:23.122Z,17.52
2022-11-15T06:38:51.002Z,15.13
2022-11-15T06:41:18.802Z,14.30
2022-11-15T06:43:46.047Z,16.10
2022-11-15T06:46:12.548Z,15.52
2022-11-15T06:48:39.110Z,14.00
2022-11-15T06:51:05.814Z,14.48
2022-11-15T06:53:33.069Z,15.13
2022-11-15T06:56:01.624Z,14.57
2022-11-15T06:58:28.532Z,15.63
2022-11-15T07:00:56.256Z,15.50
2022-11-15T07:03:22.861Z,15.60
2022-11-15T07:05:56.700Z,16.60
2022-11-15T07:08:24.297Z,17.27
2022-11-15T07:10:50.939Z,15.80
2022-11-15T07:13:17.411Z,15.35
2022-11-15T07:15:43.988Z,15.02
2022-11-15T07:18:10.492Z,15.75
2022-11-15T07:20:36.985Z,13.70
2022-11-15T07:23:04.648Z,16.27
2022-11-15T07:25:31.243Z,14.80
2022-11-15T07:28:00.767Z,14.80
2022-11-15T07:30:28.219Z,14.40
2022-11-15T07:33:00.135Z,15.33
2022-11-15T07:35:27.982Z,14.93
2022-11-15T07:37:58.866Z,15.15
2022-11-15T07:40:27.187Z,15.23
2022-11-15T07:42:54.231Z,14.80
2022-11-15T07:45:21.749Z,14.23
2022-11-15T07:47:50.251Z,14.95
2022-11-15T07:50:20.320Z,14.73
2022-11-15T07:52:48.324Z,14.50
2022-11-15T07:55:14.961Z,13.75
2022-11-15T07:57:43.846Z,14.37
2022-11-15T08:00:11.033Z,13.88
2022-11-15T08:02:37.901Z,13.57
2022-11-15T08:05:08.414Z,15.85
2022-11-15T08:07:35.337Z,14.07
2022-11-15T08:10:05.042Z,15.10
2022-11-15T08:12:34.277Z,14.20
2022-11-15T08:15:00.804Z,14.45
2022-11-15T08:17:28.634Z,15.32
2022-11-15T08:19:59.104Z,15.32
2022-11-15T08:22:26.472Z,15.33
2022-11-15T08:24:52.945Z,15.88
2022-11-15T08:27:19.565Z,15.80
2022-11-15T08:29:48.378Z,15.30
2022-11-15T08:32:14.886Z,14.30
2022-11-15T08:34:42.772Z,14.13
2022-11-15T08:37:09.470Z,16.38
2022-11-15T08:39:38.957Z,14.07
2022-11-15T08:42:05.534Z,15.57
2022-11-15T08:44:35.349Z,13.68
2022-11-15T08:47:02.319Z,15.43
2022-11-15T08:49:28.803Z,16.05
2022-11-15T08:51:55.644Z,15.13
2022-11-15T08:54:22.163Z,15.60
2022-11-15T08:56:48.887Z,15.52
2022-11-15T08:59:15.408Z,15.33
2022-11-15T09:01:42.358Z,15.80
2022-11-15T09:04:08.845Z,16.98
2022-11-15T09:06:42.956Z,15.85
2022-11-15T09:09:10.159Z,16.20
2022-11-15T09:11:36.771Z,16.33
2022-11-15T09:14:03.469Z,15.35
2022-11-15T09:16:34.375Z,18.10
2022-11-15T09:19:01.969Z,15.57
2022-11-15T09:21:31.570Z,14.95
2022-11-15T09:24:00.774Z,15.57
2022-11-15T09:26:33.309Z,14.80
2022-11-15T09:29:06.168Z,14.35
2022-11-15T09:31:32.990Z,15.25
2022-11-15T09:33:59.535Z,16.77
2022-11-15T09:36:26.312Z,14.70
2022-11-15T09:38:52.815Z,15.55
2022-11-15T09:42:02.459Z,15.35
2022-11-15T09:44:53.587Z,15.20
2022-11-15T09:47:57.171Z,15.07
2022-11-15T09:50:38.303Z,14.87
2022-11-15T09:53:05.204Z,15.27
2022-11-15T09:55:50.597Z,15.13
2022-11-15T09:58:28.012Z,15.00
2022-11-15T10:00:57.698Z,15.25
2022-11-15T10:03:31.861Z,15.07
2022-11-15T10:06:04.440Z,14.60
2022-11-15T10:09:25.109Z,14.25
2022-11-15T10:11:56.164Z,13.85
2022-11-15T10:14:26.068Z,14.30
2022-11-15T10:17:29.798Z,14.33
2022-11-15T10:20:24.566Z,15.68
2022-11-15T10:23:00.505Z,14.48
2022-11-15T10:25:35.508Z,15.35
2022-11-15T10:28:05.063Z,14.98
2022-11-15T10:30:40.338Z,14.93
2022-11-15T10:33:43.414Z,14.13
2022-11-15T10:36:09.870Z,14.95
2022-11-15T10:38:51.816Z,14.63
2022-11-15T10:41:27.343Z,14.77
2022-11-15T10:44:06.121Z,14.73
2022-11-15T10:46:50.107Z,14.63
2022-11-15T10:49:31.145Z,14.52
2022-11-15T10:52:12.740Z,16.02
2022-11-15T10:54:50.695Z,15.65
2022-11-15T10:57:20.493Z,16.40
2022-11-15T10:59:50.699Z,14.52
2022-11-15T11:02:37.351Z,14.52
2022-11-15T11:05:28.156Z,14.95
2022-11-15T11:08:08.787Z,15.68
2022-11-15T11:10:50.905Z,15.43
2022-11-15T11:13:37.651Z,14.73
2022-11-15T11:16:42.875Z,15.70
2022-11-15T11:19:17.118Z,15.20
2022-11-15T11:21:57.140Z,14.50
2022-11-15T11:24:39.848Z,14.17
2022-11-15T11:27:30.486Z,13.52
2022-11-15T11:30:11.958Z,14.63
2022-11-15T11:32:57.527Z,13.98
2022-11-15T11:35:41.609Z,13.63
2022-11-15T11:38:11.167Z,13.90
2022-11-15T11:41:15.489Z,14.52
2022-11-15T11:44:02.619Z,13.02
2022-11-15T11:46:57.262Z,14.60
2022-11-15T11:49:53.348Z,14.10
2022-11-15T11:52:47.475Z,14.83
2022-11-15T11:55:21.620Z,15.68
2022-11-15T11:58:08.045Z,16.35
2022-11-15T12:00:41.299Z,16.17
2022-11-15T12:03:29.810Z,16.85
2022-11-15T12:06:06.156Z,17.30
2022-11-15T12:08:50.442Z,17.95
2022-11-15T12:11:32.193Z,17.27
2022-11-15T12:14:04.046Z,19.30
2022-11-15T12:16:34.120Z,19.02
2022-11-15T12:19:03.315Z,20.37
2022-11-15T12:21:51.328Z,17.13
2022-11-15T12:24:35.445Z,17.23
2022-11-15T12:27:12.240Z,17.90
2022-11-15T12:29:48.785Z,18.88
2022-11-15T12:32:22.401Z,18.17
2022-11-15T12:34:49.946Z,18.35
2022-11-15T12:37:47.385Z,18.55
2022-11-15T12:40:30.022Z,19.05
2022-11-15T12:43:04.545Z,19.08
2022-11-15T12:45:36.505Z,18.43
2022-11-15T12:48:20.631Z,18.75
2022-11-15T12:50:54.577Z,18.83
2022-11-15T12:53:28.789Z,19.38
2022-11-15T12:56:07.419Z,19.77
2022-11-15T12:58:48.241Z,18.83
2022-11-15T13:01:39.044Z,18.17
2022-11-15T13:04:22.667Z,17.38
2022-11-15T13:07:04.794Z,18.38
2022-11-15T13:09:37.591Z,19.45
2022-11-15T13:12:04.884Z,18.90
2022-11-15T13:14:52.333Z,19.65
2022-11-15T13:17:36.684Z,19.38
2022-11-15T13:20:16.477Z,18.75
2022-11-15T13:23:10.624Z,19.90
2022-11-15T13:25:37.207Z,18.07
2022-11-15T13:28:10.573Z,20.30
2022-11-15T13:30:38.790Z,20.05
2022-11-15T13:33:17.676Z,20.48
2022-11-15T13:36:04.839Z,19.13
2022-11-15T13:38:36.403Z,20.40
2022-11-15T13:41:29.886Z,20.85
2022-11-15T13:44:06.381Z,20.67
2022-11-15T13:46:34.444Z,19.08
2022-11-15T13:49:05.367Z,18.05
2022-11-15T13:51:57.971Z,18.23
2022-11-15T13:54:45.039Z,18.35
2022-11-15T13:57:22.058Z,17.00
2022-11-15T14:00:04.568Z,18.30
2022-11-15T14:02:33.601Z,17.10
2022-11-15T14:05:27.071Z,16.27
2022-11-15T14:07:57.482Z,16.77
2022-11-15T14:10:32.120Z,16.33
2022-11-15T14:12:59.802Z,15.93
2022-11-15T14:15:37.471Z,15.23
2022-11-15T14:18:05.100Z,15.20
2022-11-15T14:20:34.380Z,14.85
2022-11-15T14:23:03.345Z,14.88
2022-11-15T14:25:32.207Z,15.13
2022-11-15T14:28:10.974Z,14.85
2022-11-15T14:30:37.809Z,14.60
2022-11-15T14:33:36.190Z,14.77
2022-11-15T14:36:12.084Z,12.93
2022-11-15T14:38:38.683Z,16.10
2022-11-15T14:41:05.367Z,13.18
2022-11-15T14:43:31.941Z,13.40
2022-11-15T14:46:00.282Z,13.73
2022-11-15T14:48:27.844Z,15.35
2022-11-15T14:50:54.345Z,15.02
2022-11-15T14:53:23.066Z,11.48
2022-11-15T14:55:50.041Z,14.37
2022-11-15T14:58:17.685Z,14.15
2022-11-15T15:00:45.584Z,14.07
2022-11-15T15:03:12.056Z,14.20
2022-11-15T15:05:44.164Z,14.90
2022-11-15T15:08:11.679Z,13.73
2022-11-15T15:10:46.111Z,14.48
2022-11-15T15:13:43.661Z,13.82
2022-11-15T15:16:10.180Z,13.02
2022-11-15T15:18:36.649Z,12.00
2022-11-15T15:21:12.267Z,13.43
2022-11-15T15:23:40.122Z,11.65
2022-11-15T15:26:08.147Z,12.88
2022-11-15T15:28:36.449Z,12.85
2022-11-15T15:31:05.743Z,12.50
2022-11-15T15:33:33.367Z,12.77
2022-11-15T15:36:00.271Z,13.18
2022-11-15T15:38:26.868Z,11.60
2022-11-15T15:40:53.523Z,12.38
2022-11-15T15:43:21.091Z,13.80
2022-11-15T15:45:49.385Z,13.53
2022-11-15T15:48:17.622Z,13.95
2022-11-15T15:50:46.821Z,12.52
2022-11-15T15:53:17.041Z,13.68
2022-11-15T15:55:46.568Z,12.68
2022-11-15T15:58:14.915Z,13.03
2022-11-15T16:00:42.683Z,13.73
2022-11-15T16:03:10.354Z,15.32
2022-11-15T16:05:46.053Z,15.48
2022-11-15T16:08:31.865Z,15.52
2022-11-15T16:11:04.641Z,14.80
2022-11-15T16:13:31.201Z,15.13
2022-11-15T16:15:59.789Z,12.93
2022-11-15T16:18:34.085Z,13.30
2022-11-15T16:21:01.618Z,12.50
2022-11-15T16:23:29.423Z,13.30
2022-11-15T16:25:58.366Z,12.85
2022-11-15T16:31:19.269Z,15.23
2022-11-15T16:34:11.286Z,14.38
2022-11-15T16:36:38.287Z,12.93
2022-11-15T16:39:14.568Z,13.20
2022-11-15T16:42:03.147Z,13.20
2022-11-15T16:44:29.910Z,14.43
2022-11-15T16:46:57.621Z,12.70
2022-11-15T16:49:24.419Z,12.03
2022-11-15T16:51:51.678Z,13.02
2022-11-15T16:54:20.428Z,12.98
2022-11-15T16:56:47.938Z,12.13
2022-11-15T16:59:17.825Z,13.52
2022-11-15T17:01:50.654Z,13.07
2022-11-15T17:04:18.857Z,14.13
2022-11-15T17:06:47.166Z,12.75
2022-11-15T17:09:18.835Z,14.05
2022-11-15T17:11:45.456Z,14.70
2022-11-15T17:14:12.793Z,14.53
2022-11-15T17:16:42.784Z,14.43
2022-11-15T17:19:17.042Z,14.30
2022-11-15T17:21:44.473Z,13.32
2022-11-15T17:24:11.570Z,13.80
2022-11-15T17:26:40.737Z,15.27
2022-11-15T17:29:17.795Z,14.77
2022-11-15T17:31:44.673Z,14.30
2022-11-15T17:34:11.299Z,16.58
2022-11-15T17:36:37.813Z,16.40
2022-11-15T17:39:07.769Z,17.67
2022-11-15T17:41:34.606Z,16.83
2022-11-15T17:44:03.344Z,16.52
2022-11-15T17:46:30.247Z,19.50
2022-11-15T17:48:57.654Z,18.50
2022-11-15T17:51:27.261Z,17.37
2022-11-15T17:53:56.945Z,16.90
2022-11-15T17:56:25.123Z,17.83
2022-11-15T17:58:53.525Z,15.88
2022-11-15T18:01:22.657Z,15.77
2022-11-15T18:03:49.994Z,16.13
2022-11-15T18:06:17.510Z,15.65
2022-11-15T18:08:48.668Z,15.25
2022-11-15T18:11:20.895Z,15.30
2022-11-15T18:13:52.198Z,15.57
2022-11-15T18:16:26.964Z,15.63
2022-11-15T18:18:55.088Z,14.70
2022-11-15T18:21:24.556Z,13.70
2022-11-15T18:23:55.568Z,13.75
2022-11-15T18:26:27.098Z,16.13
2022-11-15T18:28:55.884Z,15.43
2022-11-15T18:31:27.976Z,15.73
2022-11-15T18:33:54.947Z,15.63
2022-11-15T18:36:23.666Z,16.67
2022-11-15T18:39:04.802Z,16.10
2022-11-15T18:41:32.618Z,17.97
2022-11-15T18:44:02.317Z,18.00
2022-11-15T18:46:39.482Z,18.85
2022-11-15T18:49:09.936Z,18.25
2022-11-15T18:51:41.911Z,17.27
2022-11-15T18:54:14.522Z,17.57
2022-11-15T18:56:41.903Z,17.13
2022-11-15T18:59:08.855Z,17.17
2022-11-15T19:01:37.974Z,15.90
2022-11-15T19:04:07.778Z,16.33
2022-11-15T19:06:40.060Z,16.23
2022-11-15T19:09:07.689Z,15.73
2022-11-15T19:11:36.948Z,16.10
2022-11-15T19:14:04.600Z,15.77
2022-11-15T19:16:34.448Z,16.13
2022-11-15T19:19:06.518Z,17.80
2022-11-15T19:21:33.863Z,17.92
2022-11-15T19:24:01.492Z,16.65
2022-11-15T19:26:29.409Z,17.60
2022-11-15T19:28:58.390Z,17.80
2022-11-15T19:31:26.215Z,15.80
2022-11-15T19:33:53.196Z,14.27
2022-11-15T19:36:22.131Z,13.45
2022-11-15T19:38:48.991Z,13.07
2022-11-15T19:41:20.496Z,14.38
2022-11-15T19:43:48.024Z,15.27
2022-11-15T19:46:15.232Z,15.90
2022-11-15T19:48:43.202Z,15.32
2022-11-15T19:51:15.367Z,14.00
2022-11-15T19:53:43.038Z,14.23
2022-11-15T19:56:15.546Z,13.93
2022-11-15T19:58:42.688Z,13.32
2022-11-15T20:01:30.533Z,14.20
2022-11-15T20:03:59.591Z,14.23
2022-11-15T20:06:31.216Z,14.27
2022-11-15T20:09:07.240Z,15.33
2022-11-15T20:11:34.355Z,14.13
2022-11-15T20:14:02.464Z,14.60
2022-11-15T20:16:30.831Z,14.43
2022-11-15T20:18:57.950Z,13.65
2022-11-15T20:22:09.769Z,14.73
2022-11-15T20:24:36.345Z,14.32
2022-11-15T20:27:02.955Z,14.15
2022-11-15T20:29:29.515Z,14.02
2022-11-15T20:31:56.011Z,14.13
2022-11-15T20:34:22.504Z,14.07
2022-11-15T20:36:49.029Z,13.23
2022-11-15T20:39:15.500Z,14.43
2022-11-15T20:41:41.955Z,16.02
2022-11-15T20:44:08.462Z,14.95
2022-11-15T20:46:35.157Z,16.97
2022-11-15T20:49:01.828Z,16.23
2022-11-15T20:51:28.546Z,17.35
2022-11-15T20:54:01.322Z,16.75
2022-11-15T20:56:27.825Z,15.95
2022-11-15T20:58:54.858Z,16.70
2022-11-15T21:01:24.592Z,17.27
2022-11-15T21:03:53.025Z,17.20
2022-11-15T21:06:23.475Z,17.42
2022-11-15T21:09:10.451Z,17.95
2022-11-15T21:11:56.863Z,18.10
2022-11-15T21:14:23.374Z,17.75
2022-11-15T21:16:51.334Z,19.42
2022-11-15T21:19:20.537Z,18.15
2022-11-15T21:21:53.652Z,18.38
2022-11-15T21:24:20.538Z,16.83
2022-11-15T21:26:47.852Z,15.93
2022-11-15T21:29:17.360Z,17.15
2022-11-15T21:31:45.290Z,17.48
2022-11-15T21:34:11.873Z,18.33
2022-11-15T21:36:38.460Z,17.97
2022-11-15T21:39:06.510Z,18.48
2022-11-15T21:41:35.609Z,17.42
2022-11-15T21:44:03.452Z,18.45
2022-11-15T21:46:30.999Z,18.30
2022-11-15T21:48:58.092Z,17.03
2022-11-15T21:51:24.974Z,17.25
2022-11-15T21:54:02.489Z,16.60
2022-11-15T21:56:31.883Z,15.95
2022-11-15T21:58:58.816Z,17.33
2022-11-15T22:01:56.140Z,15.97
2022-11-15T22:04:24.324Z,16.92
2022-11-15T22:06:51.161Z,17.40
2022-11-15T22:09:17.797Z,17.58
2022-11-15T22:11:45.410Z,17.50
2022-11-15T22:14:13.052Z,16.33
2022-11-15T22:16:39.866Z,17.55
2022-11-15T22:19:06.776Z,16.95
2022-11-15T22:21:33.472Z,16.70
2022-11-15T22:24:00.160Z,15.57
2022-11-15T22:26:26.788Z,17.63
2022-11-15T22:28:53.471Z,18.55
2022-11-15T22:31:20.170Z,19.75
2022-11-15T22:33:47.325Z,19.50
2022-11-15T22:36:14.147Z,19.67
2022-11-15T22:38:40.715Z,18.20
2022-11-15T22:41:13.486Z,17.65
2022-11-15T22:43:40.176Z,17.90
2022-11-15T22:46:11.332Z,17.60
2022-11-15T22:48:40.469Z,17.67
2022-11-15T22:51:08.653Z,16.97
2022-11-15T22:53:42.468Z,16.55
2022-11-15T22:56:10.061Z,15.52
2022-11-15T22:58:36.986Z,16.50
2022-11-15T23:01:05.599Z,16.35
2022-11-15T23:03:34.208Z,16.60
2022-11-15T23:06:07.378Z,16.35
2022-11-15T23:08:34.484Z,17.25
2022-11-15T23:11:20.633Z,17.42
2022-11-15T23:13:52.054Z,16.98
2022-11-15T23:16:48.050Z,17.43
2022-11-15T23:19:14.795Z,18.23
2022-11-15T23:22:02.826Z,18.73
2022-11-15T23:24:32.159Z,18.58
2022-11-15T23:27:01.614Z,18.25
2022-11-15T23:29:29.070Z,16.67
2022-11-15T23:35:07.138Z,16.90
2022-11-15T23:37:35.500Z,17.20
2022-11-15T23:40:08.347Z,15.48
2022-11-15T23:42:35.310Z,16.03
2022-11-15T23:45:02.115Z,16.10
2022-11-15T23:47:28.886Z,15.13
2022-11-15T23:49:58.473Z,15.20
2022-11-15T23:52:26.545Z,14.93
2022-11-15T23:54:53.123Z,14.90
2022-11-15T23:57:19.778Z,15.63
2022-11-15T23:59:46.472Z,15.25
